createdAt,value
2019-04-30T00:00:02.629Z,22.20
2019-04-30T00:02:45.399Z,22.23
2019-04-30T00:05:17.904Z,23.00
2019-04-30T00:07:46.186Z,22.83
2019-04-30T00:10:15.539Z,21.87
2019-04-30T00:12:45.282Z,23.10
2019-04-30T00:15:17.887Z,24.33
2019-04-30T00:17:45.727Z,21.33
2019-04-30T00:20:17.635Z,26.20
2019-04-30T00:22:49.424Z,23.43
2019-04-30T00:25:19.725Z,22.80
2019-04-30T00:27:48.080Z,24.03
2019-04-30T00:30:17.194Z,23.20
2019-04-30T00:32:47.240Z,25.03
2019-04-30T00:35:19.522Z,24.05
2019-04-30T00:37:51.738Z,23.70
2019-04-30T00:40:17.331Z,24.67
2019-04-30T00:42:46.171Z,22.37
2019-04-30T00:45:15.444Z,22.77
2019-04-30T00:47:47.802Z,22.80
2019-04-30T00:50:15.941Z,22.57
2019-04-30T00:52:45.755Z,21.53
2019-04-30T00:55:15.101Z,23.35
2019-04-30T00:57:47.106Z,20.65
2019-04-30T01:00:17.799Z,19.55
2019-04-30T01:02:55.496Z,21.50
2019-04-30T01:05:25.498Z,21.77
2019-04-30T01:07:55.065Z,21.60
2019-04-30T01:10:27.298Z,20.53
2019-04-30T01:12:54.539Z,20.33
2019-04-30T01:15:23.295Z,21.45
2019-04-30T01:17:53.773Z,22.73
2019-04-30T01:20:28.439Z,23.10
2019-04-30T01:22:54.890Z,22.07
2019-04-30T01:25:23.982Z,26.37
2019-04-30T01:27:54.309Z,22.50
2019-04-30T01:30:23.385Z,23.73
2019-04-30T01:32:56.650Z,23.50
2019-04-30T01:35:23.854Z,24.63
2019-04-30T01:37:53.160Z,24.57
2019-04-30T01:40:22.020Z,22.42
2019-04-30T01:42:51.973Z,23.13
2019-04-30T01:45:23.078Z,22.93
2019-04-30T01:47:51.407Z,22.47
2019-04-30T01:50:20.210Z,21.10
2019-04-30T01:52:54.532Z,22.80
2019-04-30T01:55:39.021Z,20.57
2019-04-30T01:58:25.101Z,21.57
2019-04-30T02:00:59.379Z,19.20
2019-04-30T02:03:29.186Z,22.23
2019-04-30T02:05:59.617Z,21.67
2019-04-30T02:08:29.548Z,18.70
2019-04-30T02:10:59.475Z,20.47
2019-04-30T02:13:29.466Z,20.48
2019-04-30T02:15:59.376Z,19.53
2019-04-30T02:18:29.690Z,19.43
2019-04-30T02:20:59.512Z,20.70
2019-04-30T02:23:29.715Z,19.67
2019-04-30T02:25:59.060Z,20.63
2019-04-30T02:28:28.998Z,19.43
2019-04-30T02:31:00.371Z,18.80
2019-04-30T02:33:30.665Z,20.27
2019-04-30T02:36:13.385Z,19.60
2019-04-30T02:38:49.784Z,19.30
2019-04-30T02:41:20.075Z,20.03
2019-04-30T02:43:52.274Z,19.10
2019-04-30T02:46:22.456Z,18.70
2019-04-30T02:48:52.950Z,19.83
2019-04-30T02:51:23.599Z,18.70
2019-04-30T02:54:04.209Z,17.63
2019-04-30T02:56:33.209Z,18.73
2019-04-30T02:59:03.790Z,18.50
2019-04-30T03:01:32.504Z,18.13
2019-04-30T03:04:01.267Z,17.60
2019-04-30T03:06:30.578Z,17.20
2019-04-30T03:09:01.138Z,17.20
2019-04-30T03:11:30.421Z,18.00
2019-04-30T03:13:59.590Z,19.40
2019-04-30T03:16:30.369Z,16.27
2019-04-30T03:19:00.802Z,19.17
2019-04-30T03:21:43.170Z,17.37
2019-04-30T03:24:12.060Z,16.33
2019-04-30T03:26:40.811Z,18.77
2019-04-30T03:29:11.080Z,17.77
2019-04-30T03:31:43.745Z,18.53
2019-04-30T03:34:16.790Z,18.20
2019-04-30T03:36:41.239Z,18.23
2019-04-30T03:39:11.052Z,18.77
2019-04-30T03:41:41.370Z,17.90
2019-04-30T03:44:24.725Z,19.10
2019-04-30T03:46:41.066Z,18.70
2019-04-30T03:49:12.686Z,18.53
2019-04-30T03:51:40.616Z,18.50
2019-04-30T03:54:10.490Z,17.70
2019-04-30T03:56:40.754Z,20.13
2019-04-30T03:59:10.738Z,18.13
2019-04-30T04:01:41.379Z,17.80
2019-04-30T04:04:20.966Z,18.43
2019-04-30T04:07:10.074Z,19.70
2019-04-30T04:09:42.466Z,19.10
2019-04-30T04:12:24.305Z,20.30
2019-04-30T04:14:53.607Z,18.00
2019-04-30T04:17:23.040Z,21.27
2019-04-30T04:19:54.830Z,20.80
2019-04-30T04:22:23.707Z,20.57
2019-04-30T04:24:52.465Z,20.30
2019-04-30T04:27:21.310Z,20.57
2019-04-30T04:29:50.897Z,20.40
2019-04-30T04:32:23.949Z,20.53
2019-04-30T04:34:50.968Z,21.13
2019-04-30T04:37:20.540Z,22.37
2019-04-30T04:39:49.994Z,21.03
2019-04-30T04:42:19.847Z,22.62
2019-04-30T04:44:50.307Z,22.53
2019-04-30T04:47:20.406Z,21.80
2019-04-30T04:49:53.151Z,23.80
2019-04-30T04:52:21.465Z,24.45
2019-04-30T04:54:51.136Z,22.60
2019-04-30T04:57:22.801Z,24.80
2019-04-30T04:59:50.694Z,24.57
2019-04-30T05:02:29.758Z,25.05
2019-04-30T05:04:59.845Z,24.03
2019-04-30T05:07:28.676Z,23.53
2019-04-30T05:10:00.528Z,22.17
2019-04-30T05:12:29.730Z,23.03
2019-04-30T05:14:59.921Z,23.97
2019-04-30T05:17:31.680Z,23.73
2019-04-30T05:19:59.361Z,23.10
2019-04-30T05:22:29.382Z,23.53
2019-04-30T05:24:58.834Z,23.97
2019-04-30T05:27:28.037Z,22.70
2019-04-30T05:29:56.850Z,21.07
2019-04-30T05:32:29.223Z,21.93
2019-04-30T05:34:58.685Z,22.43
2019-04-30T05:37:28.473Z,22.10
2019-04-30T05:39:58.475Z,22.10
2019-04-30T05:42:28.555Z,23.67
2019-04-30T05:44:59.174Z,22.07
2019-04-30T05:47:29.051Z,23.60
2019-04-30T05:49:58.477Z,24.00
2019-04-30T05:52:29.072Z,23.53
2019-04-30T05:54:58.497Z,23.43
2019-04-30T05:57:29.483Z,20.77
2019-04-30T05:59:58.594Z,19.83
2019-04-30T06:02:32.994Z,19.40
2019-04-30T06:04:58.787Z,18.03
2019-04-30T06:07:29.794Z,16.53
2019-04-30T06:10:05.358Z,16.30
2019-04-30T06:12:53.819Z,14.87
2019-04-30T06:15:39.413Z,15.60
2019-04-30T06:18:13.547Z,14.77
2019-04-30T06:20:38.748Z,17.60
2019-04-30T06:23:09.145Z,16.07
2019-04-30T06:25:55.664Z,16.50
2019-04-30T06:28:09.728Z,16.43
2019-04-30T06:30:39.628Z,15.47
2019-04-30T06:33:09.354Z,16.40
2019-04-30T06:35:39.504Z,16.82
2019-04-30T06:38:08.634Z,16.37
2019-04-30T06:40:39.130Z,16.60
2019-04-30T06:43:09.128Z,16.67
2019-04-30T06:45:38.777Z,17.77
2019-04-30T06:48:09.000Z,28.45
2019-04-30T06:50:39.348Z,21.00
2019-04-30T06:53:09.309Z,22.43
2019-04-30T06:55:39.265Z,22.27
2019-04-30T06:58:14.632Z,24.30
2019-04-30T07:00:40.177Z,20.90
2019-04-30T07:03:09.741Z,25.43
2019-04-30T07:05:39.102Z,21.87
2019-04-30T07:08:36.033Z,22.03
2019-04-30T07:11:13.582Z,22.03
2019-04-30T07:13:43.133Z,21.43
2019-04-30T07:16:11.930Z,19.30
2019-04-30T07:18:40.668Z,18.40
2019-04-30T07:21:09.463Z,17.07
2019-04-30T07:23:38.803Z,18.47
2019-04-30T07:26:09.100Z,19.17
2019-04-30T07:28:44.709Z,18.20
2019-04-30T07:31:14.327Z,17.50
2019-04-30T07:33:39.781Z,16.17
2019-04-30T07:36:09.689Z,19.90
2019-04-30T07:38:45.024Z,23.77
2019-04-30T07:41:09.697Z,21.53
2019-04-30T07:43:39.349Z,20.97
2019-04-30T07:46:09.325Z,18.67
2019-04-30T07:48:40.335Z,19.93
2019-04-30T07:51:10.187Z,17.90
2019-04-30T07:53:40.359Z,18.53
2019-04-30T07:56:24.378Z,19.27
2019-04-30T07:58:39.834Z,17.63
2019-04-30T08:01:10.391Z,16.77
2019-04-30T08:03:41.048Z,18.70
2019-04-30T08:06:10.388Z,18.33
2019-04-30T08:08:40.931Z,21.63
2019-04-30T08:11:22.788Z,20.33
2019-04-30T08:13:41.283Z,18.20
2019-04-30T08:16:10.726Z,16.80
2019-04-30T08:18:39.483Z,18.80
2019-04-30T08:21:09.461Z,16.83
2019-04-30T08:23:39.762Z,17.57
2019-04-30T08:26:08.917Z,18.10
2019-04-30T08:28:38.629Z,17.10
2019-04-30T08:31:09.026Z,17.80
2019-04-30T08:33:40.112Z,17.60
2019-04-30T08:36:09.393Z,15.83
2019-04-30T08:38:39.478Z,18.37
2019-04-30T08:41:09.281Z,16.97
2019-04-30T08:43:39.417Z,16.50
2019-04-30T08:46:09.452Z,17.05
2019-04-30T08:48:49.826Z,14.90
2019-04-30T08:51:09.950Z,15.00
2019-04-30T08:53:41.120Z,16.07
2019-04-30T08:56:10.185Z,15.88
2019-04-30T08:58:39.159Z,16.33
2019-04-30T09:01:08.749Z,15.80
2019-04-30T09:03:39.273Z,15.73
2019-04-30T09:06:09.665Z,16.10
2019-04-30T09:08:40.098Z,13.37
2019-04-30T09:11:22.132Z,17.10
2019-04-30T09:13:39.471Z,15.47
2019-04-30T09:16:09.235Z,16.37
2019-04-30T09:18:39.376Z,15.77
2019-04-30T09:21:08.978Z,14.40
2019-04-30T09:23:44.643Z,15.90
2019-04-30T09:26:08.750Z,15.10
2019-04-30T09:28:40.785Z,13.93
2019-04-30T09:31:08.795Z,15.03
2019-04-30T09:33:39.380Z,12.67
2019-04-30T09:36:09.189Z,13.00
2019-04-30T09:38:38.932Z,13.00
2019-04-30T09:41:09.357Z,12.43
2019-04-30T09:43:38.193Z,13.63
2019-04-30T09:46:17.891Z,14.07
2019-04-30T09:48:38.647Z,14.40
2019-04-30T09:51:10.159Z,14.63
2019-04-30T09:53:39.478Z,14.37
2019-04-30T09:56:09.562Z,13.17
2019-04-30T09:58:39.340Z,13.40
2019-04-30T10:01:09.409Z,13.67
2019-04-30T10:03:39.187Z,10.90
2019-04-30T10:06:08.963Z,12.73
2019-04-30T10:08:47.910Z,12.80
2019-04-30T10:11:18.837Z,11.97
2019-04-30T10:13:47.578Z,11.87
2019-04-30T10:16:26.773Z,12.00
2019-04-30T10:18:55.525Z,12.63
2019-04-30T10:21:24.403Z,12.40
2019-04-30T10:23:53.145Z,12.57
2019-04-30T10:26:22.006Z,12.37
2019-04-30T10:28:52.919Z,12.17
2019-04-30T10:31:21.678Z,11.00
2019-04-30T10:33:50.518Z,11.90
2019-04-30T10:36:19.498Z,13.83
2019-04-30T10:38:49.403Z,12.13
2019-04-30T10:41:18.842Z,12.20
2019-04-30T10:43:49.222Z,10.90
2019-04-30T10:46:18.195Z,11.65
2019-04-30T10:48:47.056Z,11.40
2019-04-30T10:51:15.809Z,10.05
2019-04-30T10:53:44.590Z,11.23
2019-04-30T10:56:13.538Z,11.67
2019-04-30T10:58:42.328Z,11.60
2019-04-30T11:01:11.071Z,11.83
2019-04-30T11:03:39.849Z,11.83
2019-04-30T11:06:08.756Z,11.57
2019-04-30T11:08:37.548Z,10.93
2019-04-30T11:11:06.354Z,12.00
2019-04-30T11:13:35.130Z,11.67
2019-04-30T11:16:12.434Z,11.33
2019-04-30T11:18:35.619Z,11.17
2019-04-30T11:21:04.802Z,11.20
2019-04-30T11:23:33.887Z,12.43
2019-04-30T11:26:03.643Z,11.77
2019-04-30T11:28:32.906Z,11.20
2019-04-30T11:31:03.543Z,11.60
2019-04-30T11:33:32.682Z,11.50
2019-04-30T11:36:02.992Z,11.90
2019-04-30T11:38:32.203Z,11.40
2019-04-30T11:41:00.991Z,12.10
2019-04-30T11:43:29.780Z,11.60
2019-04-30T11:46:18.696Z,12.97
2019-04-30T11:48:49.010Z,12.20
2019-04-30T11:51:19.410Z,12.60
2019-04-30T11:53:49.010Z,12.30
2019-04-30T11:56:18.040Z,12.03
2019-04-30T11:58:48.798Z,10.60
2019-04-30T12:01:19.526Z,11.40
2019-04-30T12:03:49.763Z,12.73
2019-04-30T12:06:18.681Z,12.23
2019-04-30T12:09:04.899Z,13.00
2019-04-30T12:11:40.917Z,13.50
2019-04-30T12:14:09.699Z,12.83
2019-04-30T12:16:39.560Z,11.20
2019-04-30T12:19:09.535Z,13.30
2019-04-30T12:21:38.341Z,12.87
2019-04-30T12:24:07.111Z,11.00
2019-04-30T12:26:35.853Z,12.67
2019-04-30T12:29:05.269Z,11.97
2019-04-30T12:31:34.018Z,12.77
2019-04-30T12:34:02.777Z,12.63
2019-04-30T12:36:31.539Z,13.27
2019-04-30T12:39:00.344Z,13.00
2019-04-30T12:41:41.418Z,12.70
2019-04-30T12:44:11.941Z,13.80
2019-04-30T12:46:40.689Z,12.40
2019-04-30T12:49:11.270Z,13.50
2019-04-30T12:51:48.801Z,12.53
2019-04-30T12:54:19.797Z,13.07
2019-04-30T12:57:02.038Z,13.40
2019-04-30T12:59:30.815Z,12.53
2019-04-30T13:01:59.564Z,13.00
2019-04-30T13:04:29.333Z,13.90
2019-04-30T13:07:01.599Z,14.30
2019-04-30T13:09:30.280Z,13.73
2019-04-30T13:12:00.583Z,12.97
2019-04-30T13:14:30.828Z,13.00
2019-04-30T13:17:00.121Z,12.63
2019-04-30T13:19:28.900Z,12.53
2019-04-30T13:21:58.712Z,14.90
2019-04-30T13:24:31.087Z,13.43
2019-04-30T13:26:59.483Z,12.97
2019-04-30T13:29:35.889Z,13.03
2019-04-30T13:32:05.148Z,14.23
2019-04-30T13:34:53.479Z,14.10
2019-04-30T13:37:22.228Z,12.03
2019-04-30T13:40:07.709Z,13.73
2019-04-30T13:42:53.288Z,13.47
2019-04-30T13:45:22.089Z,13.30
2019-04-30T13:47:50.837Z,13.30
2019-04-30T13:50:21.442Z,12.93
2019-04-30T13:52:50.098Z,12.13
2019-04-30T13:55:19.254Z,12.70
2019-04-30T13:57:48.112Z,13.70
2019-04-30T14:00:21.336Z,13.30
2019-04-30T14:02:51.691Z,13.33
2019-04-30T14:05:21.224Z,13.13
2019-04-30T14:07:54.728Z,13.27
2019-04-30T14:10:23.745Z,13.00
2019-04-30T14:12:54.074Z,14.37
2019-04-30T14:15:22.975Z,13.33
2019-04-30T14:17:51.748Z,12.90
2019-04-30T14:20:20.599Z,13.20
2019-04-30T14:22:49.380Z,13.47
2019-04-30T14:25:18.372Z,13.58
2019-04-30T14:27:52.265Z,13.30
2019-04-30T14:30:19.427Z,13.13
2019-04-30T14:32:50.581Z,13.03
2019-04-30T14:35:18.884Z,12.55
2019-04-30T14:37:49.489Z,14.00
2019-04-30T14:40:20.300Z,12.53
2019-04-30T14:42:50.781Z,12.90
2019-04-30T14:45:27.945Z,13.07
2019-04-30T14:48:01.013Z,13.30
2019-04-30T14:50:30.563Z,13.30
2019-04-30T14:53:00.925Z,13.50
2019-04-30T14:55:36.981Z,12.10
2019-04-30T14:58:25.622Z,13.27
2019-04-30T15:01:12.091Z,12.93
2019-04-30T15:03:41.109Z,13.70
2019-04-30T15:06:09.858Z,12.77
2019-04-30T15:08:39.380Z,14.10
2019-04-30T15:11:09.099Z,13.50
2019-04-30T15:13:39.340Z,13.87
2019-04-30T15:16:08.264Z,13.80
2019-04-30T15:18:38.811Z,13.40
2019-04-30T15:21:09.443Z,12.60
2019-04-30T15:23:42.935Z,12.70
2019-04-30T15:26:21.674Z,13.60
2019-04-30T15:28:42.217Z,13.90
2019-04-30T15:31:11.000Z,14.35
2019-04-30T15:33:41.369Z,13.30
2019-04-30T15:36:10.179Z,13.22
2019-04-30T15:38:56.556Z,13.90
2019-04-30T15:41:25.428Z,14.20
2019-04-30T15:43:54.176Z,14.55
2019-04-30T15:46:23.727Z,13.90
2019-04-30T15:48:52.511Z,15.17
2019-04-30T15:51:21.289Z,13.47
2019-04-30T15:53:50.038Z,14.77
2019-04-30T15:56:19.324Z,13.50
2019-04-30T15:59:09.008Z,14.23
2019-04-30T16:01:40.056Z,13.67
2019-04-30T16:04:10.792Z,14.90
2019-04-30T16:06:39.572Z,14.57
2019-04-30T16:09:12.332Z,13.60
2019-04-30T16:11:58.692Z,13.97
2019-04-30T16:14:29.541Z,14.27
2019-04-30T16:17:04.169Z,14.60
2019-04-30T16:19:32.976Z,14.53
2019-04-30T16:22:01.742Z,14.40
2019-04-30T16:24:30.512Z,14.30
2019-04-30T16:26:59.519Z,15.17
2019-04-30T16:29:28.317Z,14.47
2019-04-30T16:31:59.027Z,14.10
2019-04-30T16:34:30.194Z,16.17
2019-04-30T16:36:59.061Z,15.40
2019-04-30T16:39:28.810Z,15.03
2019-04-30T16:41:59.189Z,14.50
2019-04-30T16:44:28.112Z,14.83
2019-04-30T16:46:56.981Z,14.63
2019-04-30T16:49:25.754Z,14.83
2019-04-30T16:51:54.610Z,14.40
2019-04-30T16:54:25.202Z,15.20
2019-04-30T16:57:03.443Z,13.47
2019-04-30T16:59:26.049Z,14.63
2019-04-30T17:01:57.836Z,14.27
2019-04-30T17:04:43.079Z,15.60
2019-04-30T17:07:19.353Z,14.05
2019-04-30T17:09:50.980Z,14.13
2019-04-30T17:12:27.229Z,14.20
2019-04-30T17:15:13.591Z,14.37
2019-04-30T17:17:42.634Z,14.30
2019-04-30T17:20:12.434Z,15.17
2019-04-30T17:22:41.212Z,14.57
2019-04-30T17:25:10.307Z,15.10
2019-04-30T17:27:39.355Z,13.57
2019-04-30T17:30:11.057Z,13.23
2019-04-30T17:32:39.961Z,14.27
2019-04-30T17:35:13.914Z,12.53
2019-04-30T17:37:46.645Z,14.80
2019-04-30T17:40:15.744Z,13.80
2019-04-30T17:42:44.515Z,13.87
2019-04-30T17:45:13.509Z,14.10
2019-04-30T17:47:42.371Z,13.43
2019-04-30T17:50:11.501Z,15.20
2019-04-30T17:52:40.520Z,15.63
2019-04-30T17:55:10.610Z,15.17
2019-04-30T17:57:40.328Z,15.03
2019-04-30T18:00:18.942Z,14.55
2019-04-30T18:02:42.000Z,14.80
2019-04-30T18:05:11.372Z,15.90
2019-04-30T18:07:40.634Z,16.80
2019-04-30T18:10:11.296Z,16.63
2019-04-30T18:12:40.258Z,16.10
2019-04-30T18:15:17.802Z,16.20
2019-04-30T18:17:50.909Z,15.77
2019-04-30T18:20:36.374Z,15.97
2019-04-30T18:23:21.819Z,15.03
2019-04-30T18:25:55.121Z,16.10
2019-04-30T18:28:23.865Z,13.72
2019-04-30T18:30:52.609Z,13.77
2019-04-30T18:33:21.522Z,15.43
2019-04-30T18:35:50.304Z,15.10
2019-04-30T18:38:19.103Z,15.85
2019-04-30T18:40:49.566Z,15.40
2019-04-30T18:43:18.924Z,13.75
2019-04-30T18:45:49.503Z,16.17
2019-04-30T18:48:19.542Z,18.03
2019-04-30T18:50:48.437Z,15.40
2019-04-30T18:53:18.760Z,15.90
2019-04-30T18:55:50.519Z,14.83
2019-04-30T18:58:20.048Z,15.23
2019-04-30T19:00:49.452Z,17.87
2019-04-30T19:03:21.593Z,16.40
2019-04-30T19:05:50.723Z,15.10
2019-04-30T19:08:33.240Z,15.25
2019-04-30T19:11:06.491Z,15.80
2019-04-30T19:13:36.891Z,15.17
2019-04-30T19:16:25.713Z,16.70
2019-04-30T19:18:55.427Z,13.10
2019-04-30T19:21:24.289Z,16.05
2019-04-30T19:23:53.079Z,16.67
2019-04-30T19:26:21.863Z,16.75
2019-04-30T19:28:50.669Z,20.67
2019-04-30T19:31:19.941Z,18.35
2019-04-30T19:33:49.051Z,21.47
2019-04-30T19:36:20.691Z,22.97
2019-04-30T19:38:59.839Z,27.45
2019-04-30T19:41:28.861Z,29.30
2019-04-30T19:43:57.774Z,23.87
2019-04-30T19:46:26.564Z,22.63
2019-04-30T19:48:55.376Z,23.17
2019-04-30T19:51:24.157Z,22.32
2019-04-30T19:53:52.919Z,18.80
2019-04-30T19:56:21.810Z,19.90
2019-04-30T19:59:01.461Z,18.93
2019-04-30T20:01:21.105Z,18.60
2019-04-30T20:03:49.891Z,16.70
2019-04-30T20:06:19.781Z,19.87
2019-04-30T20:08:48.577Z,18.43
2019-04-30T20:11:18.167Z,18.52
2019-04-30T20:13:48.874Z,17.30
2019-04-30T20:16:19.586Z,21.00
2019-04-30T20:18:50.945Z,27.60
2019-04-30T20:21:27.954Z,21.07
2019-04-30T20:23:52.679Z,19.30
2019-04-30T20:26:21.460Z,16.37
2019-04-30T20:28:51.176Z,18.27
2019-04-30T20:31:20.385Z,20.53
2019-04-30T20:33:56.814Z,22.53
2019-04-30T20:36:28.821Z,21.00
2019-04-30T20:39:01.628Z,22.53
2019-04-30T20:41:37.053Z,23.87
2019-04-30T20:44:08.820Z,23.30
2019-04-30T20:46:39.329Z,22.40
2019-04-30T20:49:12.198Z,21.90
2019-04-30T20:51:52.730Z,20.87
2019-04-30T20:54:12.372Z,20.35
2019-04-30T20:56:41.312Z,21.03
2019-04-30T20:59:10.895Z,21.70
2019-04-30T21:01:40.283Z,19.40
2019-04-30T21:04:09.830Z,21.00
2019-04-30T21:06:39.539Z,20.40
2019-04-30T21:09:08.602Z,19.47
2019-04-30T21:11:38.570Z,19.50
2019-04-30T21:14:08.949Z,19.63
2019-04-30T21:16:37.826Z,20.27
2019-04-30T21:19:06.654Z,20.40
2019-04-30T21:21:35.500Z,20.43
2019-04-30T21:24:05.238Z,22.28
2019-04-30T21:26:34.731Z,23.50
2019-04-30T21:29:11.146Z,25.70
2019-04-30T21:31:36.566Z,20.97
2019-04-30T21:34:10.631Z,20.80
2019-04-30T21:36:39.786Z,24.17
2019-04-30T21:39:11.932Z,22.97
2019-04-30T21:41:41.581Z,24.23
2019-04-30T21:44:11.987Z,24.97
2019-04-30T21:46:41.941Z,24.90
2019-04-30T21:49:12.457Z,25.37
2019-04-30T21:51:41.530Z,24.00
2019-04-30T21:54:10.751Z,22.77
2019-04-30T21:56:40.143Z,24.17
2019-04-30T21:59:09.298Z,23.73
2019-04-30T22:01:38.772Z,23.03
2019-04-30T22:04:08.796Z,24.87
2019-04-30T22:06:39.498Z,22.33
2019-04-30T22:09:10.943Z,22.23
2019-04-30T22:11:39.712Z,21.80
2019-04-30T22:14:08.466Z,20.93
2019-04-30T22:16:37.243Z,20.47
2019-04-30T22:19:06.134Z,24.93
2019-04-30T22:21:34.876Z,23.67
2019-04-30T22:24:03.626Z,21.63
2019-04-30T22:26:32.415Z,22.63
2019-04-30T22:29:01.174Z,23.47
2019-04-30T22:31:30.090Z,22.73
2019-04-30T22:33:59.060Z,21.57
2019-04-30T22:36:29.393Z,22.53
2019-04-30T22:39:15.818Z,20.07
2019-04-30T22:41:44.574Z,23.83
2019-04-30T22:44:13.325Z,22.13
2019-04-30T22:46:42.130Z,24.17
2019-04-30T22:49:10.985Z,22.17
2019-04-30T22:51:39.749Z,22.80
2019-04-30T22:54:08.523Z,25.37
2019-04-30T22:56:37.488Z,24.93
2019-04-30T22:59:06.288Z,24.23
2019-04-30T23:01:52.940Z,22.40
2019-04-30T23:04:38.975Z,23.10
2019-04-30T23:07:07.720Z,23.45
2019-04-30T23:09:36.557Z,24.20
2019-04-30T23:12:05.632Z,22.13
2019-04-30T23:14:34.486Z,23.20
2019-04-30T23:17:03.619Z,21.47
2019-04-30T23:19:32.465Z,23.33
2019-04-30T23:22:01.239Z,20.87
2019-04-30T23:24:30.038Z,23.83
2019-04-30T23:26:58.777Z,21.67
2019-04-30T23:29:27.514Z,22.47
2019-04-30T23:31:56.287Z,22.50
2019-04-30T23:34:25.035Z,19.10
2019-04-30T23:36:53.803Z,19.63
2019-04-30T23:39:22.557Z,20.53
2019-04-30T23:41:51.341Z,19.20
2019-04-30T23:44:20.400Z,19.87
2019-04-30T23:46:49.168Z,20.73
2019-04-30T23:49:18.216Z,20.27
2019-04-30T23:51:46.985Z,22.27
2019-04-30T23:54:15.808Z,20.80
2019-04-30T23:56:44.592Z,21.60
2019-04-30T23:59:13.434Z,21.42
